createdAt,value
2023-03-26T00:02:30.095Z,97619.98
2023-03-26T00:04:59.169Z,97622.77
2023-03-26T00:07:28.353Z,97626.21
2023-03-26T00:09:58.349Z,97627.92
2023-03-26T00:12:27.339Z,97625.86
2023-03-26T00:14:57.714Z,97628.79
2023-03-26T00:17:26.307Z,97634.83
2023-03-26T00:19:55.278Z,97637.05
2023-03-26T00:22:24.286Z,97637.41
2023-03-26T00:24:52.842Z,97637.75
2023-03-26T00:27:21.420Z,97636.03
2023-03-26T00:29:50.487Z,97634.48
2023-03-26T00:32:18.899Z,97629.84
2023-03-26T00:34:48.552Z,97629.50
2023-03-26T00:37:18.617Z,97625.70
2023-03-26T00:39:49.928Z,97624.50
2023-03-26T00:42:18.842Z,97622.25
2023-03-26T00:44:47.387Z,97616.91
2023-03-26T00:47:16.685Z,97616.73
2023-03-26T00:49:47.073Z,97618.80
2023-03-26T00:52:19.298Z,97617.09
2023-03-26T00:54:51.728Z,97612.60
2023-03-26T00:57:34.519Z,97611.23
2023-03-26T01:00:17.101Z,97611.55
2023-03-26T01:02:46.624Z,97609.84
2023-03-26T01:05:36.644Z,97607.94
2023-03-26T01:08:18.482Z,97608.11
2023-03-26T01:10:51.234Z,97606.71
2023-03-26T01:13:24.591Z,97605.67
2023-03-26T01:15:53.845Z,97609.98
2023-03-26T01:18:30.956Z,97609.13
2023-03-26T01:21:09.629Z,97610.17
2023-03-26T01:23:44.473Z,97604.48
2023-03-26T01:26:52.977Z,97602.41
2023-03-26T01:29:38.053Z,97602.41
2023-03-26T01:32:41.333Z,97601.04
2023-03-26T01:35:36.572Z,97607.42
2023-03-26T01:38:11.923Z,97607.39
2023-03-26T01:41:05.433Z,97614.81
2023-03-26T01:43:49.434Z,97614.98
2023-03-26T01:46:20.017Z,97614.64
2023-03-26T01:48:49.511Z,97613.58
2023-03-26T01:51:30.985Z,97610.29
2023-03-26T01:54:01.287Z,97609.95
2023-03-26T01:56:39.656Z,97608.73
2023-03-26T01:59:22.334Z,97614.60
2023-03-26T02:02:10.586Z,97613.02
2023-03-26T02:04:53.456Z,97610.77
2023-03-26T02:07:35.104Z,97606.42
2023-03-26T02:10:15.154Z,97599.34
2023-03-26T02:12:45.360Z,97604.17
2023-03-26T02:15:14.156Z,97601.40
2023-03-26T02:17:42.649Z,97605.52
2023-03-26T02:20:14.896Z,97603.63
2023-03-26T02:22:46.184Z,97598.30
2023-03-26T02:25:19.496Z,97595.04
2023-03-26T02:27:50.573Z,97594.86
2023-03-26T02:30:26.015Z,97595.39
2023-03-26T02:32:59.605Z,97597.48
2023-03-26T02:35:33.638Z,97601.95
2023-03-26T02:38:03.227Z,97601.41
2023-03-26T02:40:31.805Z,97596.23
2023-03-26T02:43:01.361Z,97589.52
2023-03-26T02:45:32.598Z,97594.19
2023-03-26T02:48:21.507Z,97593.85
2023-03-26T02:50:56.261Z,97588.51
2023-03-26T02:53:46.563Z,97590.77
2023-03-26T02:56:38.997Z,97590.25
2023-03-26T02:59:38.861Z,97590.07
2023-03-26T03:02:29.639Z,97588.51
2023-03-26T03:05:06.461Z,97585.22
2023-03-26T03:07:38.898Z,97583.31
2023-03-26T03:10:14.185Z,97586.60
2023-03-26T03:13:02.308Z,97595.75
2023-03-26T03:15:31.185Z,97592.65
2023-03-26T03:18:02.221Z,97592.12
2023-03-26T03:20:35.812Z,97586.77
2023-03-26T03:23:04.606Z,97587.14
2023-03-26T03:25:34.069Z,97587.29
2023-03-26T03:28:04.474Z,97591.27
2023-03-26T03:30:33.338Z,97592.85
2023-03-26T03:33:20.978Z,97596.64
2023-03-26T03:35:50.515Z,97600.27
2023-03-26T03:38:19.942Z,97601.11
2023-03-26T03:40:50.819Z,97604.73
2023-03-26T03:43:19.884Z,97609.73
2023-03-26T03:46:05.837Z,97615.61
2023-03-26T03:48:39.938Z,97618.19
2023-03-26T03:51:09.865Z,97621.83
2023-03-26T03:53:58.893Z,97622.71
2023-03-26T03:56:53.354Z,97629.80
2023-03-26T03:59:47.979Z,97633.95
2023-03-26T04:02:26.935Z,97642.23
2023-03-26T04:04:59.312Z,97649.98
2023-03-26T04:07:33.325Z,97646.19
2023-03-26T04:10:10.074Z,97648.43
2023-03-26T04:12:57.673Z,97641.36
2023-03-26T04:15:43.992Z,97643.80
2023-03-26T04:18:13.290Z,97647.25
2023-03-26T04:20:49.501Z,97651.73
2023-03-26T04:23:23.861Z,97644.67
2023-03-26T04:26:04.342Z,97643.81
2023-03-26T04:28:57.616Z,97637.09
2023-03-26T04:31:30.854Z,97636.75
2023-03-26T04:34:08.497Z,97642.61
2023-03-26T04:36:46.592Z,97637.77
2023-03-26T04:39:17.076Z,97642.80
2023-03-26T04:42:04.311Z,97636.23
2023-03-26T04:44:43.087Z,97628.13
2023-03-26T04:47:14.360Z,97622.79
2023-03-26T04:49:48.354Z,97618.30
2023-03-26T04:52:17.780Z,97613.30
2023-03-26T04:55:00.255Z,97610.71
2023-03-26T04:57:37.640Z,97606.91
2023-03-26T05:00:16.985Z,97605.54
2023-03-26T05:02:50.771Z,97605.70
2023-03-26T05:05:20.789Z,97602.95
2023-03-26T05:07:51.057Z,97607.95
2023-03-26T05:10:23.891Z,97603.98
2023-03-26T05:12:57.261Z,97604.15
2023-03-26T05:15:32.797Z,97609.16
2023-03-26T05:18:09.010Z,97608.64
2023-03-26T05:20:46.829Z,97610.02
2023-03-26T05:23:15.872Z,97610.38
2023-03-26T05:25:49.881Z,97606.75
2023-03-26T05:28:26.810Z,97606.75
2023-03-26T05:30:58.796Z,97611.73
2023-03-26T05:33:29.316Z,97614.33
2023-03-26T05:36:17.648Z,97612.42
2023-03-26T05:38:50.148Z,97611.02
2023-03-26T05:41:36.527Z,97609.11
2023-03-26T05:44:05.572Z,97610.48
2023-03-26T05:46:34.161Z,97618.58
2023-03-26T05:49:02.748Z,97618.41
2023-03-26T05:51:34.794Z,97614.95
2023-03-26T05:54:35.702Z,97613.39
2023-03-26T05:57:10.588Z,97610.61
2023-03-26T06:00:15.955Z,97611.28
2023-03-26T06:02:48.470Z,97610.41
2023-03-26T06:05:37.966Z,97615.20
2023-03-26T06:08:14.270Z,97621.91
2023-03-26T06:10:53.955Z,97621.00
2023-03-26T06:13:23.664Z,97618.55
2023-03-26T06:15:53.444Z,97619.92
2023-03-26T06:18:33.876Z,97621.80
2023-03-26T06:21:21.339Z,97622.81
2023-03-26T06:23:55.172Z,97626.25
2023-03-26T06:26:49.756Z,97623.11
2023-03-26T06:29:48.591Z,97623.11
2023-03-26T06:32:27.979Z,97623.27
2023-03-26T06:35:06.931Z,97626.19
2023-03-26T06:37:35.645Z,97628.45
2023-03-26T06:40:06.067Z,97630.52
2023-03-26T06:43:10.597Z,97632.05
2023-03-26T06:46:09.405Z,97632.21
2023-03-26T06:48:42.598Z,97637.57
2023-03-26T06:51:29.462Z,97642.59
2023-03-26T06:54:19.253Z,97645.19
2023-03-26T06:56:54.393Z,97649.86
2023-03-26T06:59:42.407Z,97649.33
2023-03-26T07:02:30.235Z,97649.83
2023-03-26T07:05:18.368Z,97650.70
2023-03-26T07:08:05.818Z,97649.30
2023-03-26T07:11:13.840Z,97650.88
2023-03-26T07:14:11.578Z,97651.23
2023-03-26T07:16:53.889Z,97649.66
2023-03-26T07:19:34.986Z,97656.53
2023-03-26T07:22:04.708Z,97656.52
2023-03-26T07:24:56.744Z,97654.44
2023-03-26T07:28:05.685Z,97656.48
2023-03-26T07:31:19.553Z,97652.74
2023-03-26T07:34:44.936Z,97644.39
2023-03-26T07:38:00.762Z,97643.98
2023-03-26T07:41:01.887Z,97645.27
2023-03-26T07:43:55.121Z,97639.29
2023-03-26T07:46:50.240Z,97634.93
2023-03-26T07:49:34.533Z,97638.90
2023-03-26T07:52:04.066Z,97639.85
2023-03-26T07:54:52.388Z,97642.52
2023-03-26T07:57:58.675Z,97642.46
2023-03-26T08:00:49.046Z,97627.45
2023-03-26T08:03:25.827Z,97624.80
2023-03-26T08:06:39.198Z,97626.09
2023-03-26T08:09:33.201Z,97627.09
2023-03-26T08:12:38.194Z,97626.56
2023-03-26T08:15:21.723Z,97624.36
2023-03-26T08:18:26.585Z,97623.25
2023-03-26T08:21:06.976Z,97634.27
2023-03-26T08:24:02.029Z,97628.93
2023-03-26T08:27:00.099Z,97634.15
2023-03-26T08:29:45.845Z,97636.10
2023-03-26T08:32:18.837Z,97626.35
2023-03-26T08:34:47.474Z,97618.38
2023-03-26T08:37:16.398Z,97615.89
2023-03-26T08:39:45.495Z,97621.15
2023-03-26T08:42:20.612Z,97621.23
2023-03-26T08:44:52.542Z,97619.50
2023-03-26T08:47:42.497Z,97616.05
2023-03-26T08:50:16.047Z,97616.48
2023-03-26T08:53:12.457Z,97613.23
2023-03-26T08:55:53.092Z,97608.83
2023-03-26T08:58:40.725Z,97605.09
2023-03-26T09:01:31.451Z,97606.20
2023-03-26T09:04:15.813Z,97606.71
2023-03-26T09:07:00.460Z,97602.41
2023-03-26T09:09:55.337Z,97602.05
2023-03-26T09:13:01.972Z,97601.83
2023-03-26T09:15:49.013Z,97598.10
2023-03-26T09:18:23.658Z,97595.15
2023-03-26T09:21:40.354Z,97597.33
2023-03-26T09:24:23.050Z,97589.26
2023-03-26T09:26:55.373Z,97586.86
2023-03-26T09:30:01.614Z,97585.39
2023-03-26T09:33:03.751Z,97590.82
2023-03-26T09:35:39.132Z,97593.08
2023-03-26T09:38:32.750Z,97593.45
2023-03-26T09:41:01.793Z,97591.52
2023-03-26T09:44:09.237Z,97593.92
2023-03-26T09:47:03.870Z,97589.44
2023-03-26T09:49:40.992Z,97592.27
2023-03-26T09:52:25.016Z,97592.52
2023-03-26T09:55:08.201Z,97586.61
2023-03-26T09:57:58.811Z,97590.63
2023-03-26T10:00:46.397Z,97591.34
2023-03-26T10:03:26.759Z,97587.98
2023-03-26T10:05:58.451Z,97588.67
2023-03-26T10:08:39.814Z,97582.37
2023-03-26T10:11:37.913Z,97579.70
2023-03-26T10:14:16.395Z,97576.94
2023-03-26T10:17:13.280Z,97577.65
2023-03-26T10:20:00.183Z,97578.34
2023-03-26T10:22:53.658Z,97572.92
2023-03-26T10:25:29.689Z,97571.56
2023-03-26T10:28:22.001Z,97565.92
2023-03-26T10:31:12.921Z,97559.48
2023-03-26T10:33:47.895Z,97555.27
2023-03-26T10:36:38.159Z,97553.48
2023-03-26T10:39:37.579Z,97556.28
2023-03-26T10:42:34.009Z,97551.84
2023-03-26T10:45:15.321Z,97553.11
2023-03-26T10:47:59.375Z,97557.98
2023-03-26T10:50:54.631Z,97560.27
2023-03-26T10:53:36.753Z,97559.46
2023-03-26T10:56:23.784Z,97564.63
2023-03-26T10:58:54.595Z,97562.73
2023-03-26T11:01:47.371Z,97561.66
2023-03-26T11:04:33.448Z,97558.25
2023-03-26T11:07:08.838Z,97556.91
2023-03-26T11:10:17.314Z,97554.25
2023-03-26T11:12:51.839Z,97551.62
2023-03-26T11:15:39.382Z,97548.83
2023-03-26T11:18:21.224Z,97540.29
2023-03-26T11:21:23.039Z,97536.05
2023-03-26T11:24:11.807Z,97537.86
2023-03-26T11:27:17.863Z,97533.98
2023-03-26T11:30:15.028Z,97532.35
2023-03-26T11:32:48.565Z,97523.70
2023-03-26T11:35:39.812Z,97525.73
2023-03-26T11:38:27.249Z,97523.13
2023-03-26T11:40:58.168Z,97522.05
2023-03-26T11:43:46.765Z,97520.02
2023-03-26T11:46:19.244Z,97516.44
2023-03-26T11:48:59.730Z,97515.95
2023-03-26T11:51:37.127Z,97511.52
2023-03-26T11:54:08.287Z,97513.20
2023-03-26T11:57:06.061Z,97506.98
2023-03-26T11:59:55.864Z,97502.20
2023-03-26T12:02:48.504Z,97500.58
2023-03-26T12:05:25.274Z,97494.02
2023-03-26T12:07:59.879Z,97490.83
2023-03-26T12:10:41.770Z,97487.14
2023-03-26T12:13:36.782Z,97482.52
2023-03-26T12:16:11.274Z,97477.14
2023-03-26T12:18:44.126Z,97471.73
2023-03-26T12:21:19.259Z,97469.60
2023-03-26T12:24:05.540Z,97470.60
2023-03-26T12:26:41.952Z,97465.45
2023-03-26T12:29:13.998Z,97460.13
2023-03-26T12:31:43.726Z,97457.60
2023-03-26T12:34:18.533Z,97461.69
2023-03-26T12:36:56.759Z,97458.54
2023-03-26T12:40:07.602Z,97452.08
2023-03-26T12:44:45.139Z,97452.48
2023-03-26T12:45:29.786Z,97453.14
2023-03-26T12:48:03.930Z,97452.90
2023-03-26T12:50:41.147Z,97451.42
2023-03-26T12:53:39.996Z,97444.95
2023-03-26T12:56:40.962Z,97442.53
2023-03-26T12:59:29.304Z,97440.45
2023-03-26T13:02:19.581Z,97440.34
2023-03-26T13:05:07.703Z,97441.95
2023-03-26T13:08:04.573Z,97441.41
2023-03-26T13:10:53.987Z,97443.59
2023-03-26T13:13:37.950Z,97444.95
2023-03-26T13:16:32.052Z,97450.05
2023-03-26T13:19:27.475Z,97456.98
2023-03-26T13:22:15.324Z,97457.65
2023-03-26T13:24:58.876Z,97462.36
2023-03-26T13:27:40.145Z,97460.48
2023-03-26T13:30:25.895Z,97459.54
2023-03-26T13:33:24.108Z,97458.60
2023-03-26T13:36:21.891Z,97448.53
2023-03-26T13:39:03.962Z,97442.40
2023-03-26T13:41:43.778Z,97442.79
2023-03-26T13:44:48.881Z,97445.42
2023-03-26T13:47:22.716Z,97441.64
2023-03-26T13:49:57.598Z,97436.90
2023-03-26T13:52:35.177Z,97434.46
2023-03-26T13:55:28.046Z,97435.67
2023-03-26T13:58:06.525Z,97438.98
2023-03-26T14:01:02.619Z,97440.48
2023-03-26T14:03:53.195Z,97439.25
2023-03-26T14:06:54.646Z,97433.80
2023-03-26T14:09:29.820Z,97435.97
2023-03-26T14:12:26.534Z,97437.09
2023-03-26T14:15:06.003Z,97436.80
2023-03-26T14:17:56.042Z,97437.84
2023-03-26T14:20:33.562Z,97438.54
2023-03-26T14:23:36.730Z,97438.55
2023-03-26T14:26:24.176Z,97433.27
2023-03-26T14:28:59.303Z,97417.96
2023-03-26T14:31:44.628Z,97421.94
2023-03-26T14:34:39.171Z,97426.91
2023-03-26T14:37:28.820Z,97437.71
2023-03-26T14:40:19.572Z,97441.48
2023-03-26T14:43:13.748Z,97434.54
2023-03-26T14:45:53.194Z,97427.77
2023-03-26T14:48:52.480Z,97421.08
2023-03-26T14:51:44.624Z,97413.84
2023-03-26T14:54:24.017Z,97409.76
2023-03-26T14:57:11.585Z,97410.15
2023-03-26T15:00:12.540Z,97408.23
2023-03-26T15:03:03.416Z,97402.59
2023-03-26T15:05:57.397Z,97401.21
2023-03-26T15:08:49.258Z,97400.05
2023-03-26T15:11:28.098Z,97392.61
2023-03-26T15:14:30.732Z,97388.83
2023-03-26T15:17:29.940Z,97389.90
2023-03-26T15:20:28.255Z,97387.32
2023-03-26T15:23:11.898Z,97382.05
2023-03-26T15:26:37.647Z,97378.20
2023-03-26T15:29:35.730Z,97379.93
2023-03-26T15:32:42.258Z,97377.52
2023-03-26T15:35:28.843Z,97374.73
2023-03-26T15:38:29.430Z,97375.80
2023-03-26T15:41:01.495Z,97374.95
2023-03-26T15:44:23.510Z,97374.59
2023-03-26T15:46:58.084Z,97372.88
2023-03-26T15:49:54.461Z,97368.08
2023-03-26T15:52:42.195Z,97367.88
2023-03-26T15:55:17.436Z,97369.88
2023-03-26T15:57:58.297Z,97369.58
2023-03-26T16:00:29.862Z,97372.54
2023-03-26T16:03:10.444Z,97373.61
2023-03-26T16:06:07.656Z,97372.30
2023-03-26T16:09:00.775Z,97370.52
2023-03-26T16:11:52.871Z,97367.10
2023-03-26T16:14:23.915Z,97368.38
2023-03-26T16:16:56.935Z,97364.64
2023-03-26T16:19:49.517Z,97363.85
2023-03-26T16:22:54.194Z,97364.70
2023-03-26T16:25:29.031Z,97365.17
2023-03-26T16:28:13.690Z,97365.86
2023-03-26T16:30:42.603Z,97366.92
2023-03-26T16:33:19.205Z,97364.20
2023-03-26T16:36:05.933Z,97365.46
2023-03-26T16:38:59.938Z,97365.33
2023-03-26T16:41:31.738Z,97364.45
2023-03-26T16:44:14.301Z,97365.84
2023-03-26T16:47:01.571Z,97359.98
2023-03-26T16:49:30.379Z,97366.62
2023-03-26T16:52:07.957Z,97370.66
2023-03-26T16:54:56.493Z,97369.52
2023-03-26T16:57:27.476Z,97364.63
2023-03-26T17:00:17.082Z,97364.71
2023-03-26T17:03:05.147Z,97363.70
2023-03-26T17:06:16.305Z,97360.13
2023-03-26T17:09:03.394Z,97363.48
2023-03-26T17:12:01.313Z,97366.31
2023-03-26T17:15:03.395Z,97366.88
2023-03-26T17:18:13.698Z,97370.12
2023-03-26T17:21:15.763Z,97368.51
2023-03-26T17:24:31.366Z,97371.73
2023-03-26T17:28:01.806Z,97370.98
2023-03-26T17:31:04.581Z,97368.16
2023-03-26T17:33:50.638Z,97370.52
2023-03-26T17:37:10.995Z,97370.58
2023-03-26T17:40:12.351Z,97364.96
2023-03-26T17:43:03.525Z,97364.89
2023-03-26T17:45:36.579Z,97360.80
2023-03-26T17:48:24.694Z,97358.23
2023-03-26T17:51:04.391Z,97359.08
2023-03-26T17:53:37.488Z,97354.52
2023-03-26T17:56:13.981Z,97353.45
2023-03-26T17:58:59.204Z,97352.60
2023-03-26T18:01:44.581Z,97350.38
2023-03-26T18:04:21.928Z,97353.15
2023-03-26T18:07:04.326Z,97352.45
2023-03-26T18:09:52.673Z,97357.50
2023-03-26T18:12:33.353Z,97358.40
2023-03-26T18:15:34.968Z,97359.13
2023-03-26T18:18:38.967Z,97357.92
2023-03-26T18:21:08.846Z,97354.66
2023-03-26T18:23:47.710Z,97357.23
2023-03-26T18:26:26.918Z,97357.90
2023-03-26T18:29:13.300Z,97359.45
2023-03-26T18:31:49.413Z,97358.98
2023-03-26T18:34:19.846Z,97355.35
2023-03-26T18:37:25.310Z,97356.91
2023-03-26T18:40:10.565Z,97362.67
2023-03-26T18:42:42.153Z,97361.02
2023-03-26T18:45:25.873Z,97358.30
2023-03-26T18:47:58.728Z,97355.92
2023-03-26T18:50:31.328Z,97352.54
2023-03-26T18:53:01.230Z,97350.31
2023-03-26T18:55:32.951Z,97346.58
2023-03-26T18:58:21.310Z,97343.32
2023-03-26T19:00:54.207Z,97343.34
2023-03-26T19:03:24.724Z,97341.77
2023-03-26T19:05:56.217Z,97340.06
2023-03-26T19:08:26.433Z,97336.50
2023-03-26T19:10:56.570Z,97335.71
2023-03-26T19:13:28.613Z,97334.70
2023-03-26T19:15:57.465Z,97332.09
2023-03-26T19:18:28.422Z,97326.56
2023-03-26T19:21:04.406Z,97324.56
2023-03-26T19:23:39.323Z,97328.59
2023-03-26T19:26:10.980Z,97333.23
2023-03-26T19:28:54.873Z,97331.47
2023-03-26T19:31:37.356Z,97329.90
2023-03-26T19:34:12.377Z,97322.58
2023-03-26T19:37:01.971Z,97318.93
2023-03-26T19:39:42.850Z,97316.55
2023-03-26T19:42:18.809Z,97313.61
2023-03-26T19:44:48.376Z,97310.52
2023-03-26T19:47:26.788Z,97309.17
2023-03-26T19:50:23.596Z,97306.25
2023-03-26T19:53:32.853Z,97306.91
2023-03-26T19:56:19.865Z,97304.80
2023-03-26T19:58:50.610Z,97302.52
2023-03-26T20:01:21.196Z,97304.21
2023-03-26T20:03:53.613Z,97300.43
2023-03-26T20:06:34.126Z,97299.27
2023-03-26T20:09:13.474Z,97295.68
2023-03-26T20:11:42.786Z,97289.81
2023-03-26T20:14:26.714Z,97286.57
2023-03-26T20:16:55.889Z,97278.67
2023-03-26T20:19:26.127Z,97277.31
2023-03-26T20:21:55.217Z,97274.55
2023-03-26T20:24:26.355Z,97276.79
2023-03-26T20:26:58.917Z,97267.97
2023-03-26T20:29:28.898Z,97265.55
2023-03-26T20:31:58.101Z,97263.30
2023-03-26T20:34:28.559Z,97257.10
2023-03-26T20:37:01.231Z,97255.22
2023-03-26T20:39:30.851Z,97254.96
2023-03-26T20:41:59.718Z,97254.71
2023-03-26T20:44:28.324Z,97254.13
2023-03-26T20:46:59.437Z,97249.16
2023-03-26T20:49:29.550Z,97250.02
2023-03-26T20:51:59.846Z,97245.73
2023-03-26T20:54:30.985Z,97246.94
2023-03-26T20:57:00.412Z,97253.65
2023-03-26T20:59:29.118Z,97259.46
2023-03-26T21:01:59.743Z,97266.29
2023-03-26T21:04:28.570Z,97270.55
2023-03-26T21:07:07.020Z,97276.04
2023-03-26T21:09:41.351Z,97278.27
2023-03-26T21:12:21.825Z,97274.35
2023-03-26T21:14:51.689Z,97270.80
2023-03-26T21:17:24.995Z,97269.02
2023-03-26T21:19:54.390Z,97268.75
2023-03-26T21:22:26.004Z,97268.44
2023-03-26T21:24:54.563Z,97267.90
2023-03-26T21:27:58.370Z,97268.56
2023-03-26T21:30:27.562Z,97272.01
2023-03-26T21:32:56.409Z,97275.83
2023-03-26T21:35:25.602Z,97275.33
2023-03-26T21:37:54.737Z,97270.55
2023-03-26T21:40:23.425Z,97269.89
2023-03-26T21:42:54.095Z,97268.88
2023-03-26T21:45:23.579Z,97266.46
2023-03-26T21:47:52.441Z,97257.48
2023-03-26T21:50:24.008Z,97247.25
2023-03-26T21:52:53.238Z,97245.19
2023-03-26T21:55:24.961Z,97242.98
2023-03-26T21:58:31.897Z,97247.98
2023-03-26T22:01:17.180Z,97256.81
2023-03-26T22:04:15.301Z,97255.64
2023-03-26T22:06:56.001Z,97258.82
2023-03-26T22:09:35.575Z,97255.96
2023-03-26T22:12:06.036Z,97254.62
2023-03-26T22:14:35.761Z,97253.58
2023-03-26T22:17:05.577Z,97251.67
2023-03-26T22:19:35.270Z,97254.57
2023-03-26T22:22:04.494Z,97257.46
2023-03-26T22:24:33.118Z,97257.77
2023-03-26T22:27:02.221Z,97259.97
2023-03-26T22:29:31.372Z,97261.50
2023-03-26T22:31:59.842Z,97260.33
2023-03-26T22:34:28.497Z,97261.36
2023-03-26T22:36:57.542Z,97267.08
2023-03-26T22:39:26.090Z,97268.66
2023-03-26T22:41:54.828Z,97268.66
2023-03-26T22:44:23.936Z,97272.27
2023-03-26T22:46:52.677Z,97276.05
2023-03-26T22:49:21.996Z,97278.10
2023-03-26T22:51:51.021Z,97279.77
2023-03-26T22:54:19.903Z,97278.67
2023-03-26T22:56:48.816Z,97274.34
2023-03-26T22:59:18.096Z,97273.27
2023-03-26T23:01:47.163Z,97272.42
2023-03-26T23:04:30.556Z,97268.98
2023-03-26T23:07:00.972Z,97269.33
2023-03-26T23:09:29.980Z,97270.59
2023-03-26T23:11:58.732Z,97271.84
2023-03-26T23:14:28.930Z,97274.83
2023-03-26T23:16:58.161Z,97268.84
2023-03-26T23:19:26.640Z,97274.88
2023-03-26T23:21:55.393Z,97273.48
2023-03-26T23:24:26.938Z,97271.40
2023-03-26T23:26:55.422Z,97269.98
2023-03-26T23:29:24.082Z,97276.87
2023-03-26T23:31:54.527Z,97280.50
2023-03-26T23:34:23.734Z,97284.80
2023-03-26T23:36:52.848Z,97287.20
2023-03-26T23:39:21.927Z,97283.90
2023-03-26T23:41:50.337Z,97281.15
2023-03-26T23:44:19.366Z,97279.30
2023-03-26T23:46:48.989Z,97278.45
2023-03-26T23:49:17.498Z,97283.30
2023-03-26T23:51:46.057Z,97282.43
2023-03-26T23:54:15.796Z,97279.82
2023-03-26T23:56:44.241Z,97278.42
2023-03-26T23:59:14.269Z,97279.96
